sensor_id;sensor_type;location;lat;lon;timestamp;P1;durP1;ratioP1;P2;durP2;ratioP2
58518;SDS011;44310;48.106;12.008;2022-10-13T00:00:07;1.23;;;1.13;;
58518;SDS011;44310;48.106;12.008;2022-10-13T00:02:34;2.85;;;1.27;;
58518;SDS011;44310;48.106;12.008;2022-10-13T00:05:02;2.80;;;2.28;;
58518;SDS011;44310;48.106;12.008;2022-10-13T00:07:29;7.57;;;1.48;;
58518;SDS011;44310;48.106;12.008;2022-10-13T00:09:56;2.80;;;1.10;;
58518;SDS011;44310;48.106;12.008;2022-10-13T00:12:23;1.60;;;1.30;;
58518;SDS011;44310;48.106;12.008;2022-10-13T00:14:50;1.42;;;1.33;;
58518;SDS011;44310;48.106;12.008;2022-10-13T00:17:17;1.25;;;1.17;;
58518;SDS011;44310;48.106;12.008;2022-10-13T00:19:44;1.98;;;1.80;;
58518;SDS011;44310;48.106;12.008;2022-10-13T00:22:11;1.30;;;1.20;;
58518;SDS011;44310;48.106;12.008;2022-10-13T00:24:38;1.73;;;1.53;;
58518;SDS011;44310;48.106;12.008;2022-10-13T00:27:05;0.95;;;0.95;;
58518;SDS011;44310;48.106;12.008;2022-10-13T00:29:32;2.50;;;1.65;;
58518;SDS011;44310;48.106;12.008;2022-10-13T00:31:59;15.30;;;2.20;;
58518;SDS011;44310;48.106;12.008;2022-10-13T00:34:26;1.10;;;1.00;;
58518;SDS011;44310;48.106;12.008;2022-10-13T00:36:53;1.58;;;1.48;;
58518;SDS011;44310;48.106;12.008;2022-10-13T00:39:20;2.17;;;1.48;;
58518;SDS011;44310;48.106;12.008;2022-10-13T00:41:47;1.05;;;0.98;;
58518;SDS011;44310;48.106;12.008;2022-10-13T00:47:19;3.40;;;1.50;;
58518;SDS011;44310;48.106;12.008;2022-10-13T00:49:47;0.88;;;0.88;;
58518;SDS011;44310;48.106;12.008;2022-10-13T00:52:15;0.85;;;0.85;;
58518;SDS011;44310;48.106;12.008;2022-10-13T00:54:45;1.25;;;1.15;;
58518;SDS011;44310;48.106;12.008;2022-10-13T00:57:13;1.08;;;1.00;;
58518;SDS011;44310;48.106;12.008;2022-10-13T00:59:41;0.90;;;0.90;;
58518;SDS011;44310;48.106;12.008;2022-10-13T01:02:08;1.02;;;1.02;;
58518;SDS011;44310;48.106;12.008;2022-10-13T01:04:37;1.10;;;1.10;;
58518;SDS011;44310;48.106;12.008;2022-10-13T01:07:07;0.87;;;0.87;;
58518;SDS011;44310;48.106;12.008;2022-10-13T01:09:35;1.00;;;1.00;;
58518;SDS011;44310;48.106;12.008;2022-10-13T01:12:15;1.08;;;1.08;;
58518;SDS011;44310;48.106;12.008;2022-10-13T01:20:47;1.13;;;1.03;;
58518;SDS011;44310;48.106;12.008;2022-10-13T01:36:44;2.72;;;1.60;;
58518;SDS011;44310;48.106;12.008;2022-10-13T01:42:16;2.70;;;2.00;;
58518;SDS011;44310;48.106;12.008;2022-10-13T01:44:53;1.58;;;1.48;;
58518;SDS011;44310;48.106;12.008;2022-10-13T01:47:26;4.47;;;2.67;;
58518;SDS011;44310;48.106;12.008;2022-10-13T01:49:55;3.40;;;1.73;;
58518;SDS011;44310;48.106;12.008;2022-10-13T01:52:24;11.00;;;2.40;;
58518;SDS011;44310;48.106;12.008;2022-10-13T01:54:56;1.80;;;1.60;;
58518;SDS011;44310;48.106;12.008;2022-10-13T01:57:31;2.35;;;2.15;;
58518;SDS011;44310;48.106;12.008;2022-10-13T02:00:00;7.10;;;1.95;;
58518;SDS011;44310;48.106;12.008;2022-10-13T02:02:42;1.20;;;1.20;;
58518;SDS011;44310;48.106;12.008;2022-10-13T02:05:33;7.00;;;1.77;;
58518;SDS011;44310;48.106;12.008;2022-10-13T02:11:02;0.85;;;0.85;;
58518;SDS011;44310;48.106;12.008;2022-10-13T02:16:19;1.00;;;1.00;;
58518;SDS011;44310;48.106;12.008;2022-10-13T02:18:49;1.20;;;1.10;;
58518;SDS011;44310;48.106;12.008;2022-10-13T02:21:17;14.07;;;2.13;;
58518;SDS011;44310;48.106;12.008;2022-10-13T02:23:44;0.80;;;0.80;;
58518;SDS011;44310;48.106;12.008;2022-10-13T02:26:12;1.20;;;1.10;;
58518;SDS011;44310;48.106;12.008;2022-10-13T02:28:39;6.40;;;1.33;;
58518;SDS011;44310;48.106;12.008;2022-10-13T02:31:08;0.80;;;0.80;;
58518;SDS011;44310;48.106;12.008;2022-10-13T02:33:35;1.30;;;1.20;;
58518;SDS011;44310;48.106;12.008;2022-10-13T02:36:02;0.80;;;0.80;;
58518;SDS011;44310;48.106;12.008;2022-10-13T02:38:29;1.42;;;1.33;;
58518;SDS011;44310;48.106;12.008;2022-10-13T02:40:57;3.60;;;1.52;;
58518;SDS011;44310;48.106;12.008;2022-10-13T02:43:25;1.73;;;1.63;;
58518;SDS011;44310;48.106;12.008;2022-10-13T02:45:52;1.50;;;1.40;;
58518;SDS011;44310;48.106;12.008;2022-10-13T02:48:20;1.13;;;1.07;;
58518;SDS011;44310;48.106;12.008;2022-10-13T02:50:47;0.80;;;0.80;;
58518;SDS011;44310;48.106;12.008;2022-10-13T02:53:14;1.33;;;1.20;;
58518;SDS011;44310;48.106;12.008;2022-10-13T02:55:41;3.60;;;1.53;;
58518;SDS011;44310;48.106;12.008;2022-10-13T02:58:08;2.10;;;1.40;;
58518;SDS011;44310;48.106;12.008;2022-10-13T03:00:35;0.70;;;0.70;;
58518;SDS011;44310;48.106;12.008;2022-10-13T03:03:05;1.05;;;1.02;;
58518;SDS011;44310;48.106;12.008;2022-10-13T03:05:32;5.15;;;1.95;;
58518;SDS011;44310;48.106;12.008;2022-10-13T03:07:59;1.77;;;1.67;;
58518;SDS011;44310;48.106;12.008;2022-10-13T03:10:26;1.65;;;1.55;;
58518;SDS011;44310;48.106;12.008;2022-10-13T03:12:53;2.45;;;1.10;;
58518;SDS011;44310;48.106;12.008;2022-10-13T03:15:21;0.90;;;0.90;;
58518;SDS011;44310;48.106;12.008;2022-10-13T03:17:48;1.80;;;1.60;;
58518;SDS011;44310;48.106;12.008;2022-10-13T03:20:15;0.98;;;0.98;;
58518;SDS011;44310;48.106;12.008;2022-10-13T03:22:42;5.10;;;1.30;;
58518;SDS011;44310;48.106;12.008;2022-10-13T03:25:15;8.10;;;2.20;;
58518;SDS011;44310;48.106;12.008;2022-10-13T03:27:42;3.90;;;1.97;;
58518;SDS011;44310;48.106;12.008;2022-10-13T03:30:10;2.47;;;2.28;;
58518;SDS011;44310;48.106;12.008;2022-10-13T03:32:37;1.60;;;1.50;;
58518;SDS011;44310;48.106;12.008;2022-10-13T03:35:05;1.58;;;1.38;;
58518;SDS011;44310;48.106;12.008;2022-10-13T03:37:33;2.30;;;1.35;;
58518;SDS011;44310;48.106;12.008;2022-10-13T03:40:00;5.60;;;1.08;;
58518;SDS011;44310;48.106;12.008;2022-10-13T03:42:27;0.70;;;0.70;;
58518;SDS011;44310;48.106;12.008;2022-10-13T03:44:54;1.38;;;1.27;;
58518;SDS011;44310;48.106;12.008;2022-10-13T03:47:22;1.00;;;1.00;;
58518;SDS011;44310;48.106;12.008;2022-10-13T03:49:49;1.65;;;1.30;;
58518;SDS011;44310;48.106;12.008;2022-10-13T03:52:16;1.27;;;1.13;;
58518;SDS011;44310;48.106;12.008;2022-10-13T03:54:44;3.22;;;1.88;;
58518;SDS011;44310;48.106;12.008;2022-10-13T03:57:11;1.00;;;1.00;;
58518;SDS011;44310;48.106;12.008;2022-10-13T03:59:38;1.55;;;1.45;;
58518;SDS011;44310;48.106;12.008;2022-10-13T04:02:06;5.72;;;1.90;;
58518;SDS011;44310;48.106;12.008;2022-10-13T04:04:34;3.30;;;1.50;;
58518;SDS011;44310;48.106;12.008;2022-10-13T04:07:03;1.30;;;1.23;;
58518;SDS011;44310;48.106;12.008;2022-10-13T04:09:30;1.13;;;1.10;;
58518;SDS011;44310;48.106;12.008;2022-10-13T04:11:57;4.95;;;1.73;;
58518;SDS011;44310;48.106;12.008;2022-10-13T04:14:25;4.10;;;2.08;;
58518;SDS011;44310;48.106;12.008;2022-10-13T04:16:52;3.60;;;1.70;;
58518;SDS011;44310;48.106;12.008;2022-10-13T04:19:19;0.88;;;0.85;;
58518;SDS011;44310;48.106;12.008;2022-10-13T04:21:46;4.20;;;1.30;;
58518;SDS011;44310;48.106;12.008;2022-10-13T04:24:13;4.60;;;1.40;;
58518;SDS011;44310;48.106;12.008;2022-10-13T04:26:42;1.77;;;1.25;;
58518;SDS011;44310;48.106;12.008;2022-10-13T04:29:11;2.58;;;1.30;;
58518;SDS011;44310;48.106;12.008;2022-10-13T04:31:38;1.50;;;1.40;;
58518;SDS011;44310;48.106;12.008;2022-10-13T04:34:08;1.10;;;1.10;;
58518;SDS011;44310;48.106;12.008;2022-10-13T04:36:36;4.50;;;1.33;;
58518;SDS011;44310;48.106;12.008;2022-10-13T04:39:03;2.50;;;1.70;;
58518;SDS011;44310;48.106;12.008;2022-10-13T04:41:30;1.30;;;1.20;;
58518;SDS011;44310;48.106;12.008;2022-10-13T04:43:57;1.23;;;1.10;;
58518;SDS011;44310;48.106;12.008;2022-10-13T04:46:27;1.08;;;1.08;;
58518;SDS011;44310;48.106;12.008;2022-10-13T04:48:55;1.00;;;1.00;;
58518;SDS011;44310;48.106;12.008;2022-10-13T04:51:23;1.00;;;1.00;;
58518;SDS011;44310;48.106;12.008;2022-10-13T04:53:55;1.60;;;1.50;;
58518;SDS011;44310;48.106;12.008;2022-10-13T04:56:24;2.00;;;1.50;;
58518;SDS011;44310;48.106;12.008;2022-10-13T04:58:52;0.98;;;0.98;;
58518;SDS011;44310;48.106;12.008;2022-10-13T05:01:20;0.95;;;0.95;;
58518;SDS011;44310;48.106;12.008;2022-10-13T05:03:49;3.90;;;1.13;;
58518;SDS011;44310;48.106;12.008;2022-10-13T05:06:19;2.80;;;2.23;;
58518;SDS011;44310;48.106;12.008;2022-10-13T05:08:48;3.30;;;1.10;;
58518;SDS011;44310;48.106;12.008;2022-10-13T05:11:16;1.27;;;1.00;;
58518;SDS011;44310;48.106;12.008;2022-10-13T05:13:45;3.80;;;1.70;;
58518;SDS011;44310;48.106;12.008;2022-10-13T05:16:14;2.07;;;1.20;;
58518;SDS011;44310;48.106;12.008;2022-10-13T05:18:42;1.00;;;1.00;;
58518;SDS011;44310;48.106;12.008;2022-10-13T05:21:11;2.10;;;1.27;;
58518;SDS011;44310;48.106;12.008;2022-10-13T05:23:43;3.45;;;2.13;;
58518;SDS011;44310;48.106;12.008;2022-10-13T05:26:14;5.93;;;1.38;;
58518;SDS011;44310;48.106;12.008;2022-10-13T05:28:43;1.35;;;1.35;;
58518;SDS011;44310;48.106;12.008;2022-10-13T05:31:15;1.35;;;1.35;;
58518;SDS011;44310;48.106;12.008;2022-10-13T05:33:47;1.40;;;1.30;;
58518;SDS011;44310;48.106;12.008;2022-10-13T05:36:16;11.93;;;1.83;;
58518;SDS011;44310;48.106;12.008;2022-10-13T05:38:51;2.80;;;1.27;;
58518;SDS011;44310;48.106;12.008;2022-10-13T05:41:20;2.33;;;1.63;;
58518;SDS011;44310;48.106;12.008;2022-10-13T05:43:49;3.65;;;2.25;;
58518;SDS011;44310;48.106;12.008;2022-10-13T05:46:18;1.47;;;1.37;;
58518;SDS011;44310;48.106;12.008;2022-10-13T05:48:45;3.23;;;1.27;;
58518;SDS011;44310;48.106;12.008;2022-10-13T05:51:14;1.40;;;1.30;;
58518;SDS011;44310;48.106;12.008;2022-10-13T05:53:44;1.35;;;1.35;;
58518;SDS011;44310;48.106;12.008;2022-10-13T05:56:29;1.83;;;1.38;;
58518;SDS011;44310;48.106;12.008;2022-10-13T05:59:02;1.40;;;1.20;;
58518;SDS011;44310;48.106;12.008;2022-10-13T06:01:32;1.57;;;1.50;;
58518;SDS011;44310;48.106;12.008;2022-10-13T06:04:03;1.43;;;1.33;;
58518;SDS011;44310;48.106;12.008;2022-10-13T06:06:35;1.60;;;1.25;;
58518;SDS011;44310;48.106;12.008;2022-10-13T06:09:02;1.55;;;1.05;;
58518;SDS011;44310;48.106;12.008;2022-10-13T06:11:29;2.60;;;1.38;;
58518;SDS011;44310;48.106;12.008;2022-10-13T06:13:56;2.60;;;1.25;;
58518;SDS011;44310;48.106;12.008;2022-10-13T06:16:23;1.85;;;1.67;;
58518;SDS011;44310;48.106;12.008;2022-10-13T06:18:50;2.30;;;1.90;;
58518;SDS011;44310;48.106;12.008;2022-10-13T06:21:17;3.05;;;2.30;;
58518;SDS011;44310;48.106;12.008;2022-10-13T06:23:44;2.40;;;1.93;;
58518;SDS011;44310;48.106;12.008;2022-10-13T06:26:11;1.10;;;1.10;;
58518;SDS011;44310;48.106;12.008;2022-10-13T06:28:38;2.10;;;1.90;;
58518;SDS011;44310;48.106;12.008;2022-10-13T06:31:06;1.85;;;1.75;;
58518;SDS011;44310;48.106;12.008;2022-10-13T06:33:33;4.57;;;1.70;;
58518;SDS011;44310;48.106;12.008;2022-10-13T06:36:02;1.58;;;1.48;;
58518;SDS011;44310;48.106;12.008;2022-10-13T06:38:30;15.65;;;2.00;;
58518;SDS011;44310;48.106;12.008;2022-10-13T06:41:01;1.77;;;1.50;;
58518;SDS011;44310;48.106;12.008;2022-10-13T06:43:29;5.57;;;1.40;;
58518;SDS011;44310;48.106;12.008;2022-10-13T06:46:05;2.58;;;1.92;;
58518;SDS011;44310;48.106;12.008;2022-10-13T06:48:33;7.60;;;2.35;;
58518;SDS011;44310;48.106;12.008;2022-10-13T06:51:01;3.00;;;1.50;;
58518;SDS011;44310;48.106;12.008;2022-10-13T06:53:32;3.00;;;1.30;;
58518;SDS011;44310;48.106;12.008;2022-10-13T06:56:01;1.42;;;1.33;;
58518;SDS011;44310;48.106;12.008;2022-10-13T06:58:30;9.90;;;1.40;;
58518;SDS011;44310;48.106;12.008;2022-10-13T07:00:57;0.90;;;0.90;;
58518;SDS011;44310;48.106;12.008;2022-10-13T07:03:24;6.35;;;2.08;;
58518;SDS011;44310;48.106;12.008;2022-10-13T07:05:51;1.60;;;1.50;;
58518;SDS011;44310;48.106;12.008;2022-10-13T07:08:18;1.47;;;1.47;;
58518;SDS011;44310;48.106;12.008;2022-10-13T07:10:46;9.60;;;3.20;;
58518;SDS011;44310;48.106;12.008;2022-10-13T07:13:13;1.58;;;1.48;;
58518;SDS011;44310;48.106;12.008;2022-10-13T07:15:40;14.23;;;2.75;;
58518;SDS011;44310;48.106;12.008;2022-10-13T07:18:07;21.40;;;3.00;;
58518;SDS011;44310;48.106;12.008;2022-10-13T07:20:34;2.50;;;2.30;;
58518;SDS011;44310;48.106;12.008;2022-10-13T07:23:01;4.72;;;2.13;;
58518;SDS011;44310;48.106;12.008;2022-10-13T07:25:29;1.77;;;1.45;;
58518;SDS011;44310;48.106;12.008;2022-10-13T07:27:59;9.60;;;2.10;;
58518;SDS011;44310;48.106;12.008;2022-10-13T07:30:26;1.33;;;1.33;;
58518;SDS011;44310;48.106;12.008;2022-10-13T07:32:53;2.60;;;1.85;;
58518;SDS011;44310;48.106;12.008;2022-10-13T07:35:20;2.03;;;1.35;;
58518;SDS011;44310;48.106;12.008;2022-10-13T07:37:56;0.90;;;0.90;;
58518;SDS011;44310;48.106;12.008;2022-10-13T07:40:23;4.30;;;2.30;;
58518;SDS011;44310;48.106;12.008;2022-10-13T07:42:50;1.73;;;1.60;;
58518;SDS011;44310;48.106;12.008;2022-10-13T07:45:18;0.93;;;0.90;;
58518;SDS011;44310;48.106;12.008;2022-10-13T07:47:45;0.93;;;0.93;;
58518;SDS011;44310;48.106;12.008;2022-10-13T07:50:12;1.13;;;1.13;;
58518;SDS011;44310;48.106;12.008;2022-10-13T07:52:39;1.20;;;1.10;;
58518;SDS011;44310;48.106;12.008;2022-10-13T07:55:07;1.90;;;1.80;;
58518;SDS011;44310;48.106;12.008;2022-10-13T07:57:34;1.00;;;1.00;;
58518;SDS011;44310;48.106;12.008;2022-10-13T08:00:02;1.80;;;1.70;;
58518;SDS011;44310;48.106;12.008;2022-10-13T08:02:31;1.15;;;1.15;;
58518;SDS011;44310;48.106;12.008;2022-10-13T08:05:01;0.93;;;0.93;;
58518;SDS011;44310;48.106;12.008;2022-10-13T08:07:28;1.90;;;1.70;;
58518;SDS011;44310;48.106;12.008;2022-10-13T08:09:55;9.95;;;1.80;;
58518;SDS011;44310;48.106;12.008;2022-10-13T08:12:23;6.93;;;1.50;;
58518;SDS011;44310;48.106;12.008;2022-10-13T08:14:50;3.88;;;2.13;;
58518;SDS011;44310;48.106;12.008;2022-10-13T08:17:17;19.15;;;3.53;;
58518;SDS011;44310;48.106;12.008;2022-10-13T08:19:45;13.80;;;2.70;;
58518;SDS011;44310;48.106;12.008;2022-10-13T08:22:12;6.88;;;3.08;;
58518;SDS011;44310;48.106;12.008;2022-10-13T08:24:39;2.00;;;1.88;;
58518;SDS011;44310;48.106;12.008;2022-10-13T08:27:08;10.57;;;3.40;;
58518;SDS011;44310;48.106;12.008;2022-10-13T08:29:44;3.70;;;3.17;;
58518;SDS011;44310;48.106;12.008;2022-10-13T08:32:11;20.15;;;3.80;;
58518;SDS011;44310;48.106;12.008;2022-10-13T08:34:38;11.60;;;3.53;;
58518;SDS011;44310;48.106;12.008;2022-10-13T08:37:10;2.00;;;1.90;;
58518;SDS011;44310;48.106;12.008;2022-10-13T08:39:39;4.35;;;2.60;;
58518;SDS011;44310;48.106;12.008;2022-10-13T08:42:19;2.28;;;2.17;;
58518;SDS011;44310;48.106;12.008;2022-10-13T08:44:54;1.50;;;1.40;;
58518;SDS011;44310;48.106;12.008;2022-10-13T08:47:48;9.57;;;3.00;;
58518;SDS011;44310;48.106;12.008;2022-10-13T08:50:21;2.83;;;1.92;;
58518;SDS011;44310;48.106;12.008;2022-10-13T08:55:23;1.63;;;1.52;;
58518;SDS011;44310;48.106;12.008;2022-10-13T08:57:58;10.63;;;2.40;;
58518;SDS011;44310;48.106;12.008;2022-10-13T09:00:28;10.55;;;4.57;;
58518;SDS011;44310;48.106;12.008;2022-10-13T09:06:03;2.70;;;2.50;;
58518;SDS011;44310;48.106;12.008;2022-10-13T09:08:37;6.10;;;3.27;;
58518;SDS011;44310;48.106;12.008;2022-10-13T09:11:08;14.70;;;3.38;;
58518;SDS011;44310;48.106;12.008;2022-10-13T09:13:37;6.35;;;3.58;;
58518;SDS011;44310;48.106;12.008;2022-10-13T09:16:04;6.20;;;2.23;;
58518;SDS011;44310;48.106;12.008;2022-10-13T09:18:32;2.30;;;1.88;;
58518;SDS011;44310;48.106;12.008;2022-10-13T09:23:47;2.53;;;2.28;;
58518;SDS011;44310;48.106;12.008;2022-10-13T09:26:23;7.75;;;2.28;;
58518;SDS011;44310;48.106;12.008;2022-10-13T09:28:50;1.95;;;1.85;;
58518;SDS011;44310;48.106;12.008;2022-10-13T09:39:25;7.30;;;2.70;;
58518;SDS011;44310;48.106;12.008;2022-10-13T09:42:17;24.60;;;3.88;;
58518;SDS011;44310;48.106;12.008;2022-10-13T09:44:48;16.75;;;3.38;;
58518;SDS011;44310;48.106;12.008;2022-10-13T09:47:22;2.07;;;1.87;;
58518;SDS011;44310;48.106;12.008;2022-10-13T09:49:58;6.85;;;2.38;;
58518;SDS011;44310;48.106;12.008;2022-10-13T09:52:33;12.83;;;2.93;;
58518;SDS011;44310;48.106;12.008;2022-10-13T09:55:00;2.15;;;1.80;;
58518;SDS011;44310;48.106;12.008;2022-10-13T09:57:38;4.22;;;2.75;;
58518;SDS011;44310;48.106;12.008;2022-10-13T10:00:17;1.30;;;1.30;;
58518;SDS011;44310;48.106;12.008;2022-10-13T10:02:54;20.83;;;3.47;;
58518;SDS011;44310;48.106;12.008;2022-10-13T10:05:43;5.03;;;2.50;;
58518;SDS011;44310;48.106;12.008;2022-10-13T10:11:43;1.58;;;1.48;;
58518;SDS011;44310;48.106;12.008;2022-10-13T10:16:49;1.30;;;1.20;;
58518;SDS011;44310;48.106;12.008;2022-10-13T10:19:25;3.70;;;1.90;;
58518;SDS011;44310;48.106;12.008;2022-10-13T10:22:04;4.40;;;1.83;;
58518;SDS011;44310;48.106;12.008;2022-10-13T10:30:17;8.20;;;3.00;;
58518;SDS011;44310;48.106;12.008;2022-10-13T10:35:26;1.63;;;1.52;;
58518;SDS011;44310;48.106;12.008;2022-10-13T10:38:08;2.33;;;2.13;;
58518;SDS011;44310;48.106;12.008;2022-10-13T10:43:42;13.60;;;2.78;;
58518;SDS011;44310;48.106;12.008;2022-10-13T10:46:17;1.10;;;1.10;;
58518;SDS011;44310;48.106;12.008;2022-10-13T10:48:50;1.48;;;1.38;;
58518;SDS011;44310;48.106;12.008;2022-10-13T10:51:27;7.70;;;2.10;;
58518;SDS011;44310;48.106;12.008;2022-10-13T10:54:18;2.97;;;2.30;;
58518;SDS011;44310;48.106;12.008;2022-10-13T10:56:55;5.03;;;1.80;;
58518;SDS011;44310;48.106;12.008;2022-10-13T10:59:30;1.17;;;1.17;;
58518;SDS011;44310;48.106;12.008;2022-10-13T11:02:18;2.03;;;1.92;;
58518;SDS011;44310;48.106;12.008;2022-10-13T11:05:00;2.13;;;2.03;;
58518;SDS011;44310;48.106;12.008;2022-10-13T11:09:59;2.00;;;1.90;;
58518;SDS011;44310;48.106;12.008;2022-10-13T11:13:05;2.03;;;1.83;;
58518;SDS011;44310;48.106;12.008;2022-10-13T11:15:44;1.65;;;1.48;;
58518;SDS011;44310;48.106;12.008;2022-10-13T11:21:21;1.70;;;1.60;;
58518;SDS011;44310;48.106;12.008;2022-10-13T11:23:48;2.15;;;2.05;;
58518;SDS011;44310;48.106;12.008;2022-10-13T11:26:25;1.90;;;1.58;;
58518;SDS011;44310;48.106;12.008;2022-10-13T11:29:13;5.05;;;1.83;;
58518;SDS011;44310;48.106;12.008;2022-10-13T11:31:47;3.63;;;1.83;;
58518;SDS011;44310;48.106;12.008;2022-10-13T11:34:24;1.20;;;1.20;;
58518;SDS011;44310;48.106;12.008;2022-10-13T11:36:54;3.38;;;2.28;;
58518;SDS011;44310;48.106;12.008;2022-10-13T11:41:57;1.65;;;1.50;;
58518;SDS011;44310;48.106;12.008;2022-10-13T11:50:36;2.53;;;1.75;;
58518;SDS011;44310;48.106;12.008;2022-10-13T11:53:25;1.15;;;1.15;;
58518;SDS011;44310;48.106;12.008;2022-10-13T11:55:57;3.03;;;0.93;;
58518;SDS011;44310;48.106;12.008;2022-10-13T11:58:31;2.03;;;1.90;;
58518;SDS011;44310;48.106;12.008;2022-10-13T12:00:59;2.83;;;2.17;;
58518;SDS011;44310;48.106;12.008;2022-10-13T12:03:40;1.20;;;1.20;;
58518;SDS011;44310;48.106;12.008;2022-10-13T12:08:44;1.50;;;1.40;;
58518;SDS011;44310;48.106;12.008;2022-10-13T12:11:29;1.65;;;1.55;;
58518;SDS011;44310;48.106;12.008;2022-10-13T12:14:03;1.00;;;1.00;;
58518;SDS011;44310;48.106;12.008;2022-10-13T12:16:34;5.90;;;1.83;;
58518;SDS011;44310;48.106;12.008;2022-10-13T12:19:38;1.13;;;1.13;;
58518;SDS011;44310;48.106;12.008;2022-10-13T12:21:57;3.45;;;1.15;;
58518;SDS011;44310;48.106;12.008;2022-10-13T12:24:27;1.08;;;1.08;;
58518;SDS011;44310;48.106;12.008;2022-10-13T12:26:55;1.98;;;1.88;;
58518;SDS011;44310;48.106;12.008;2022-10-13T12:29:24;3.05;;;1.88;;
58518;SDS011;44310;48.106;12.008;2022-10-13T12:31:53;1.40;;;1.30;;
58518;SDS011;44310;48.106;12.008;2022-10-13T12:34:31;12.17;;;4.47;;
58518;SDS011;44310;48.106;12.008;2022-10-13T12:39:29;8.98;;;6.60;;
58518;SDS011;44310;48.106;12.008;2022-10-13T12:41:58;19.17;;;4.73;;
58518;SDS011;44310;48.106;12.008;2022-10-13T12:44:27;10.68;;;3.60;;
58518;SDS011;44310;48.106;12.008;2022-10-13T12:46:59;3.97;;;3.58;;
58518;SDS011;44310;48.106;12.008;2022-10-13T12:49:35;21.00;;;6.10;;
58518;SDS011;44310;48.106;12.008;2022-10-13T12:52:12;3.88;;;3.15;;
58518;SDS011;44310;48.106;12.008;2022-10-13T12:55:18;5.80;;;3.13;;
58518;SDS011;44310;48.106;12.008;2022-10-13T12:57:43;3.15;;;2.35;;
58518;SDS011;44310;48.106;12.008;2022-10-13T13:02:53;14.35;;;3.75;;
58518;SDS011;44310;48.106;12.008;2022-10-13T13:07:58;5.35;;;3.38;;
58518;SDS011;44310;48.106;12.008;2022-10-13T13:10:26;2.22;;;1.75;;
58518;SDS011;44310;48.106;12.008;2022-10-13T13:12:53;21.00;;;3.00;;
58518;SDS011;44310;48.106;12.008;2022-10-13T13:17:51;5.70;;;3.42;;
58518;SDS011;44310;48.106;12.008;2022-10-13T13:20:28;4.95;;;2.67;;
58518;SDS011;44310;48.106;12.008;2022-10-13T13:23:00;14.50;;;4.43;;
58518;SDS011;44310;48.106;12.008;2022-10-13T13:25:27;8.95;;;3.22;;
58518;SDS011;44310;48.106;12.008;2022-10-13T13:27:54;2.60;;;2.40;;
58518;SDS011;44310;48.106;12.008;2022-10-13T13:30:22;4.05;;;2.33;;
58518;SDS011;44310;48.106;12.008;2022-10-13T13:32:49;2.17;;;2.08;;
58518;SDS011;44310;48.106;12.008;2022-10-13T13:35:16;9.80;;;2.83;;
58518;SDS011;44310;48.106;12.008;2022-10-13T13:37:45;2.78;;;1.77;;
58518;SDS011;44310;48.106;12.008;2022-10-13T13:40:17;2.70;;;2.22;;
58518;SDS011;44310;48.106;12.008;2022-10-13T13:42:47;13.20;;;2.60;;
58518;SDS011;44310;48.106;12.008;2022-10-13T13:45:16;22.40;;;5.03;;
58518;SDS011;44310;48.106;12.008;2022-10-13T13:47:45;9.73;;;2.92;;
58518;SDS011;44310;48.106;12.008;2022-10-13T13:50:16;6.57;;;4.03;;
58518;SDS011;44310;48.106;12.008;2022-10-13T13:52:47;2.28;;;2.15;;
58518;SDS011;44310;48.106;12.008;2022-10-13T13:55:14;3.13;;;2.22;;
58518;SDS011;44310;48.106;12.008;2022-10-13T13:57:42;1.88;;;1.63;;
58518;SDS011;44310;48.106;12.008;2022-10-13T14:00:10;1.40;;;1.33;;
58518;SDS011;44310;48.106;12.008;2022-10-13T14:02:38;1.48;;;1.40;;
58518;SDS011;44310;48.106;12.008;2022-10-13T14:05:06;1.15;;;1.13;;
58518;SDS011;44310;48.106;12.008;2022-10-13T14:07:33;1.13;;;1.05;;
58518;SDS011;44310;48.106;12.008;2022-10-13T14:10:00;3.30;;;1.50;;
58518;SDS011;44310;48.106;12.008;2022-10-13T14:12:28;1.42;;;1.33;;
58518;SDS011;44310;48.106;12.008;2022-10-13T14:14:56;5.40;;;1.50;;
58518;SDS011;44310;48.106;12.008;2022-10-13T14:17:24;1.25;;;1.15;;
58518;SDS011;44310;48.106;12.008;2022-10-13T14:19:51;0.88;;;0.88;;
58518;SDS011;44310;48.106;12.008;2022-10-13T14:22:19;1.15;;;1.15;;
58518;SDS011;44310;48.106;12.008;2022-10-13T14:24:47;7.20;;;2.15;;
58518;SDS011;44310;48.106;12.008;2022-10-13T14:27:14;3.00;;;1.80;;
58518;SDS011;44310;48.106;12.008;2022-10-13T14:29:41;1.75;;;1.40;;
58518;SDS011;44310;48.106;12.008;2022-10-13T14:32:08;0.80;;;0.80;;
58518;SDS011;44310;48.106;12.008;2022-10-13T14:34:36;0.77;;;0.77;;
58518;SDS011;44310;48.106;12.008;2022-10-13T14:37:03;5.70;;;1.40;;
58518;SDS011;44310;48.106;12.008;2022-10-13T14:39:30;1.53;;;1.43;;
58518;SDS011;44310;48.106;12.008;2022-10-13T14:41:57;1.50;;;1.40;;
58518;SDS011;44310;48.106;12.008;2022-10-13T14:44:24;1.00;;;1.00;;
58518;SDS011;44310;48.106;12.008;2022-10-13T14:46:51;0.88;;;0.88;;
58518;SDS011;44310;48.106;12.008;2022-10-13T14:49:18;1.88;;;1.50;;
58518;SDS011;44310;48.106;12.008;2022-10-13T14:51:45;1.30;;;1.20;;
58518;SDS011;44310;48.106;12.008;2022-10-13T14:54:12;0.70;;;0.70;;
58518;SDS011;44310;48.106;12.008;2022-10-13T14:56:39;1.00;;;1.00;;
58518;SDS011;44310;48.106;12.008;2022-10-13T14:59:06;1.20;;;1.10;;
58518;SDS011;44310;48.106;12.008;2022-10-13T15:01:35;1.00;;;0.98;;
58518;SDS011;44310;48.106;12.008;2022-10-13T15:04:02;0.82;;;0.82;;
58518;SDS011;44310;48.106;12.008;2022-10-13T15:06:30;1.00;;;0.93;;
58518;SDS011;44310;48.106;12.008;2022-10-13T15:08:57;1.35;;;1.25;;
58518;SDS011;44310;48.106;12.008;2022-10-13T15:11:25;1.30;;;1.20;;
58518;SDS011;44310;48.106;12.008;2022-10-13T15:13:52;0.80;;;0.80;;
58518;SDS011;44310;48.106;12.008;2022-10-13T15:16:20;1.00;;;1.00;;
58518;SDS011;44310;48.106;12.008;2022-10-13T15:18:53;1.20;;;1.10;;
58518;SDS011;44310;48.106;12.008;2022-10-13T15:21:21;1.30;;;1.10;;
58518;SDS011;44310;48.106;12.008;2022-10-13T15:23:49;1.08;;;1.00;;
58518;SDS011;44310;48.106;12.008;2022-10-13T15:26:17;0.93;;;0.93;;
58518;SDS011;44310;48.106;12.008;2022-10-13T15:28:46;0.82;;;0.82;;
58518;SDS011;44310;48.106;12.008;2022-10-13T15:31:15;1.50;;;1.05;;
58518;SDS011;44310;48.106;12.008;2022-10-13T15:33:44;1.20;;;1.10;;
58518;SDS011;44310;48.106;12.008;2022-10-13T15:36:12;1.00;;;1.00;;
58518;SDS011;44310;48.106;12.008;2022-10-13T15:38:39;1.05;;;0.95;;
58518;SDS011;44310;48.106;12.008;2022-10-13T15:41:07;0.65;;;0.65;;
58518;SDS011;44310;48.106;12.008;2022-10-13T15:43:35;0.80;;;0.80;;
58518;SDS011;44310;48.106;12.008;2022-10-13T15:46:12;1.10;;;1.10;;
58518;SDS011;44310;48.106;12.008;2022-10-13T15:48:47;1.23;;;1.13;;
58518;SDS011;44310;48.106;12.008;2022-10-13T15:51:16;1.38;;;1.00;;
58518;SDS011;44310;48.106;12.008;2022-10-13T15:53:45;1.83;;;1.73;;
58518;SDS011;44310;48.106;12.008;2022-10-13T15:56:13;6.47;;;4.10;;
58518;SDS011;44310;48.106;12.008;2022-10-13T15:58:41;2.80;;;2.58;;
58518;SDS011;44310;48.106;12.008;2022-10-13T16:01:08;2.63;;;2.42;;
58518;SDS011;44310;48.106;12.008;2022-10-13T16:03:37;9.40;;;2.28;;
58518;SDS011;44310;48.106;12.008;2022-10-13T16:06:08;4.40;;;1.83;;
58518;SDS011;44310;48.106;12.008;2022-10-13T16:08:37;2.08;;;1.88;;
58518;SDS011;44310;48.106;12.008;2022-10-13T16:11:06;3.63;;;2.58;;
58518;SDS011;44310;48.106;12.008;2022-10-13T16:13:34;13.75;;;2.60;;
58518;SDS011;44310;48.106;12.008;2022-10-13T16:16:01;4.63;;;2.10;;
58518;SDS011;44310;48.106;12.008;2022-10-13T16:18:29;3.30;;;2.25;;
58518;SDS011;44310;48.106;12.008;2022-10-13T16:20:57;11.40;;;1.90;;